Time;durP1;ratioP1;P1;durP2;ratioP2;P2;SDS_P1;SDS_P2;PMS_P1;PMS_P2;Temp;Humidity;BMP_temperature;BMP_pressure;BME280_temperature;BME280_humidity;BME280_pressure;Samples;Min_cycle;Max_cycle;Signal;HPM_P1;HPM_P2
2021/04/21 00:02:18;;;;;;;8.95;4.15;;;4.60;70.70;;;;;;4985123;28;20030;-67
2021/04/21 00:04:46;;;;;;;7.82;3.45;;;4.60;70.70;;;;;;5002601;28;20052;-67
2021/04/21 00:07:20;;;;;;;8.60;3.42;;;4.60;69.70;;;;;;5002943;28;20101;-68
2021/04/21 00:09:47;;;;;;;6.43;3.25;;;4.60;70.50;;;;;;4999672;28;20026;-69
2021/04/21 00:12:15;;;;;;;9.98;3.78;;;4.50;70.80;;;;;;5001732;28;20031;-68
2021/04/21 00:14:41;;;;;;;6.85;3.50;;;4.50;72.00;;;;;;4982518;28;20092;-68
2021/04/21 00:17:08;;;;;;;9.32;3.80;;;4.50;72.50;;;;;;4981200;28;20030;-68
2021/04/21 00:19:36;;;;;;;8.13;3.95;;;4.50;73.00;;;;;;5002711;28;20487;-67
2021/04/21 00:22:04;;;;;;;9.25;3.80;;;4.40;72.60;;;;;;5002924;28;20034;-68
2021/04/21 00:24:31;;;;;;;8.77;4.47;;;4.40;72.90;;;;;;5000012;28;20061;-68
2021/04/21 00:26:58;;;;;;;9.95;5.15;;;4.40;74.50;;;;;;5004059;28;20034;-67
2021/04/21 00:29:26;;;;;;;9.75;5.47;;;4.40;75.00;;;;;;5002873;28;20033;-68
2021/04/21 00:31:53;;;;;;;10.20;5.68;;;4.40;75.50;;;;;;5003859;28;20129;-68
2021/04/21 00:34:20;;;;;;;8.75;5.22;;;4.40;76.50;;;;;;5002135;28;20470;-67
2021/04/21 00:36:49;;;;;;;10.80;5.22;;;4.30;76.40;;;;;;5004200;28;20014;-67
2021/04/21 00:39:16;;;;;;;10.95;5.82;;;4.30;76.60;;;;;;5004266;28;20018;-67
2021/04/21 00:42:07;;;;;;;12.05;6.35;;;4.30;77.60;;;;;;5003989;28;20042;-68
2021/04/21 00:44:40;;;;;;;10.53;6.40;;;4.30;77.70;;;;;;5003335;28;20026;-69
2021/04/21 00:47:15;;;;;;;10.65;5.88;;;4.30;78.10;;;;;;5001012;28;20281;-67
2021/04/21 00:50:05;;;;;;;10.55;6.03;;;4.30;78.20;;;;;;5000674;28;20092;-68
2021/04/21 00:52:51;;;;;;;9.07;6.00;;;4.20;78.50;;;;;;5004435;28;20037;-67
2021/04/21 00:55:39;;;;;;;12.25;6.78;;;4.20;78.70;;;;;;4983749;28;20352;-67
2021/04/21 00:58:40;;;;;;;16.50;6.55;;;4.10;78.50;;;;;;5004396;28;20138;-67
2021/04/21 01:01:09;;;;;;;12.18;6.55;;;4.10;79.60;;;;;;5004619;28;20029;-69
2021/04/21 01:03:35;;;;;;;15.07;6.55;;;4.10;79.80;;;;;;5005986;28;20126;-69
2021/04/21 01:06:02;;;;;;;13.45;6.40;;;4.00;79.60;;;;;;5005729;28;20204;-67
2021/04/21 01:08:51;;;;;;;13.52;6.15;;;4.00;78.80;;;;;;5007454;28;20038;-70
2021/04/21 01:11:40;;;;;;;11.43;5.82;;;3.90;79.70;;;;;;5004471;28;20046;-67
2021/04/21 01:14:13;;;;;;;11.88;6.05;;;3.90;79.60;;;;;;5003879;28;20079;-68
2021/04/21 01:16:41;;;;;;;13.30;7.03;;;3.80;80.60;;;;;;5006280;28;20383;-68
2021/04/21 01:20:00;;;;;;;15.73;6.75;;;3.80;80.40;;;;;;5001861;28;20084;-68
2021/04/21 01:22:43;;;;;;;10.90;6.53;;;3.70;79.60;;;;;;4984984;28;20041;-67
2021/04/21 01:25:20;;;;;;;12.48;7.15;;;3.70;81.50;;;;;;5008596;28;20062;-67
2021/04/21 01:27:46;;;;;;;14.05;7.55;;;3.70;81.00;;;;;;5008349;28;20030;-67
2021/04/21 01:30:31;;;;;;;13.40;8.15;;;3.70;82.70;;;;;;5005600;28;20048;-68
2021/04/21 01:33:01;;;;;;;15.65;7.82;;;3.60;83.00;;;;;;5009546;28;20065;-68
2021/04/21 01:35:28;;;;;;;13.80;6.80;;;3.60;82.90;;;;;;5007254;28;20592;-68
2021/04/21 01:37:58;;;;;;;12.65;6.95;;;3.60;82.40;;;;;;5006480;28;20513;-67
2021/04/21 01:40:49;;;;;;;16.17;5.97;;;3.50;82.50;;;;;;5008665;28;20108;-67
2021/04/21 01:43:19;;;;;;;12.48;6.07;;;3.40;81.70;;;;;;5008730;28;20040;-67
2021/04/21 01:45:46;;;;;;;15.52;7.20;;;3.40;82.80;;;;;;4997494;28;20295;-68
2021/04/21 01:48:22;;;;;;;11.05;6.68;;;3.30;82.70;;;;;;5008716;28;20552;-66
2021/04/21 01:50:49;;;;;;;15.15;6.40;;;3.30;83.70;;;;;;5007771;28;20034;-68
2021/04/21 01:53:35;;;;;;;11.48;6.35;;;3.20;82.90;;;;;;5008285;28;20194;-67
2021/04/21 01:56:15;;;;;;;10.95;5.93;;;3.10;83.90;;;;;;5004938;28;20506;-69
2021/04/21 01:59:10;;;;;;;9.57;5.97;;;3.10;84.90;;;;;;5004621;28;20034;-67
2021/04/21 02:01:46;;;;;;;15.48;5.28;;;3.10;83.20;;;;;;5006500;28;20453;-67
2021/04/21 02:04:33;;;;;;;10.55;5.57;;;3.00;83.70;;;;;;5006981;28;20030;-67
2021/04/21 02:07:11;;;;;;;10.57;5.53;;;3.00;83.20;;;;;;5007961;28;20763;-67
2021/04/21 02:09:53;;;;;;;9.52;5.53;;;3.00;83.20;;;;;;5007402;28;20053;-68
2021/04/21 02:12:40;;;;;;;9.93;5.80;;;2.90;82.80;;;;;;4988468;28;20736;-67
2021/04/21 02:15:19;;;;;;;10.07;5.30;;;2.90;82.60;;;;;;5007815;28;20069;-68
2021/04/21 02:18:20;;;;;;;12.65;5.60;;;2.90;82.90;;;;;;5006894;28;20561;-67
2021/04/21 02:21:05;;;;;;;11.27;5.55;;;2.90;83.80;;;;;;4977944;28;20405;-66
2021/04/21 02:23:48;;;;;;;11.82;6.32;;;2.80;83.60;;;;;;5005992;28;20026;-68
2021/04/21 02:26:39;;;;;;;12.25;6.25;;;2.80;83.30;;;;;;5009590;28;20033;-68
2021/04/21 02:29:14;;;;;;;;;;;2.80;83.90;;;;;;5005983;28;20083;-67
2021/04/21 02:32:17;;;;;;;14.73;6.55;;;2.70;84.60;;;;;;5006979;28;19920;-67
2021/04/21 02:35:08;;;;;;;11.57;6.72;;;2.70;85.20;;;;;;5008029;28;20109;-67
2021/04/21 02:37:58;;;;;;;13.30;7.78;;;2.60;85.50;;;;;;4986646;28;20058;-67
2021/04/21 02:40:52;;;;;;;14.77;8.38;;;2.60;85.00;;;;;;5002591;28;20030;-68
2021/04/21 02:43:40;;;;;;;13.27;7.70;;;2.60;85.10;;;;;;5007850;28;20504;-67
2021/04/21 02:46:37;;;;;;;12.55;7.85;;;2.60;85.50;;;;;;5006212;28;20533;-67
2021/04/21 02:49:15;;;;;;;14.20;8.32;;;2.60;86.30;;;;;;5003594;28;20044;-67
2021/04/21 02:51:54;;;;;;;15.00;9.13;;;2.60;85.90;;;;;;5005178;28;20036;-68
2021/04/21 02:54:42;;;;;;;12.95;7.78;;;2.60;86.50;;;;;;5005308;28;20057;-67
2021/04/21 02:57:21;;;;;;;14.00;8.93;;;2.50;85.40;;;;;;5005112;28;20033;-67
2021/04/21 03:00:15;;;;;;;17.35;10.68;;;2.40;85.80;;;;;;4988544;28;20059;-66
2021/04/21 03:02:53;;;;;;;12.60;8.88;;;2.40;86.30;;;;;;4997949;28;20042;-68
2021/04/21 03:05:31;;;;;;;13.07;8.10;;;2.30;86.90;;;;;;5008749;28;20032;-68
2021/04/21 03:08:31;;;;;;;16.35;8.88;;;2.30;85.70;;;;;;5007585;28;20076;-66
2021/04/21 03:11:12;;;;;;;16.13;8.77;;;2.30;86.30;;;;;;4993787;28;20048;-67
2021/04/21 03:14:01;;;;;;;13.27;8.45;;;2.20;86.90;;;;;;5007015;28;20033;-67
2021/04/21 03:16:31;;;;;;;14.00;8.20;;;2.10;87.20;;;;;;4995454;28;20025;-68
2021/04/21 03:18:59;;;;;;;13.05;7.45;;;2.10;86.20;;;;;;5001509;28;20030;-69
2021/04/21 03:21:27;;;;;;;11.73;6.75;;;2.10;86.30;;;;;;5005755;28;20036;-67
2021/04/21 03:24:19;;;;;;;11.65;6.70;;;2.00;86.10;;;;;;5003654;28;20076;-68
2021/04/21 03:26:48;;;;;;;11.60;7.60;;;1.90;87.00;;;;;;5005523;28;20026;-66
2021/04/21 03:29:19;;;;;;;15.38;7.63;;;1.90;87.90;;;;;;5000390;28;20026;-67
2021/04/21 03:31:47;;;;;;;13.45;7.57;;;1.80;87.90;;;;;;5006876;28;20386;-68
2021/04/21 03:34:15;;;;;;;11.05;6.82;;;1.80;87.60;;;;;;5005854;28;20049;-69
2021/04/21 03:36:42;;;;;;;12.00;7.70;;;1.70;87.10;;;;;;5006429;28;20034;-67
2021/04/21 03:39:10;;;;;;;13.80;7.13;;;1.60;87.10;;;;;;5007187;28;20091;-67
2021/04/21 03:41:36;;;;;;;16.52;6.97;;;1.50;87.30;;;;;;5007663;28;20053;-67
2021/04/21 03:44:03;;;;;;;11.32;6.95;;;1.50;87.70;;;;;;5006232;28;20486;-68
2021/04/21 03:46:30;;;;;;;14.38;7.85;;;1.50;87.60;;;;;;5001673;28;20517;-67
2021/04/21 03:48:57;;;;;;;11.45;7.70;;;1.40;87.80;;;;;;5005976;28;20095;-67
2021/04/21 03:51:23;;;;;;;15.05;7.30;;;1.50;88.10;;;;;;5007273;28;20045;-67
2021/04/21 03:53:52;;;;;;;16.80;8.73;;;1.40;87.50;;;;;;5004283;28;20438;-67
2021/04/21 03:56:21;;;;;;;11.73;7.50;;;1.40;87.30;;;;;;5007035;28;20433;-67
2021/04/21 03:58:48;;;;;;;13.25;8.57;;;1.40;87.70;;;;;;5004128;28;20102;-68
2021/04/21 04:01:16;;;;;;;15.52;8.40;;;1.40;87.30;;;;;;5004425;28;20097;-67
2021/04/21 04:03:47;;;;;;;16.08;8.57;;;1.40;86.90;;;;;;5006278;28;20030;-68
2021/04/21 04:06:19;;;;;;;18.80;9.18;;;1.40;87.70;;;;;;5007767;28;20115;-68
2021/04/21 04:09:06;;;;;;;18.90;9.93;;;1.40;88.80;;;;;;4996772;28;20053;-67
2021/04/21 04:11:40;;;;;;;19.00;10.23;;;1.40;89.10;;;;;;5003189;28;20113;-67
2021/04/21 04:14:18;;;;;;;17.75;9.90;;;1.40;88.90;;;;;;5003348;28;20406;-67
2021/04/21 04:16:45;;;;;;;17.58;9.40;;;1.40;88.80;;;;;;5007320;28;20022;-69
2021/04/21 04:19:12;;;;;;;16.60;10.82;;;1.50;89.20;;;;;;4989765;28;20112;-67
2021/04/21 04:21:40;;;;;;;19.77;10.55;;;1.50;89.40;;;;;;5007044;28;20463;-68
2021/04/21 04:24:18;;;;;;;16.27;10.95;;;1.60;88.70;;;;;;5003206;28;20505;-67
2021/04/21 04:26:45;;;;;;;19.20;11.10;;;1.50;88.80;;;;;;5006544;28;20030;-67
2021/04/21 04:29:11;;;;;;;20.38;11.98;;;1.70;89.40;;;;;;5001234;28;20843;-68
2021/04/21 04:31:38;;;;;;;17.92;12.15;;;1.70;89.50;;;;;;5004547;28;20117;-67
2021/04/21 04:34:05;;;;;;;20.05;12.10;;;1.70;89.80;;;;;;5005362;28;20026;-68
2021/04/21 04:36:49;;;;;;;18.55;10.90;;;1.80;89.10;;;;;;5005985;28;20375;-67
2021/04/21 04:39:15;;;;;;;14.63;10.38;;;1.80;88.90;;;;;;5003952;28;20029;-68
2021/04/21 04:41:41;;;;;;;18.52;11.23;;;1.80;88.70;;;;;;5007527;28;20030;-67
2021/04/21 04:44:09;;;;;;;20.73;11.70;;;1.90;88.80;;;;;;5005702;28;20030;-67
2021/04/21 04:46:41;;;;;;;23.98;14.18;;;2.00;89.00;;;;;;5007651;28;20032;-67
2021/04/21 04:49:14;;;;;;;20.73;13.13;;;2.10;89.50;;;;;;5006156;28;20026;-67
2021/04/21 04:51:43;;;;;;;19.02;12.30;;;2.10;89.70;;;;;;5003710;28;20045;-67
2021/04/21 04:54:11;;;;;;;17.48;11.50;;;2.10;89.50;;;;;;5003554;28;20030;-69
2021/04/21 04:56:38;;;;;;;22.92;12.63;;;2.20;89.40;;;;;;4989034;28;20414;-66
2021/04/21 04:59:05;;;;;;;21.27;12.18;;;2.20;88.90;;;;;;5007664;28;20572;-67
2021/04/21 05:01:49;;;;;;;19.60;10.25;;;2.30;88.80;;;;;;5009464;28;20030;-66
2021/04/21 05:04:20;;;;;;;17.27;9.82;;;2.30;88.40;;;;;;5010742;28;20034;-66
2021/04/21 05:06:59;;;;;;;18.73;11.57;;;2.40;88.60;;;;;;5011279;28;20528;-69
2021/04/21 05:09:29;;;;;;;21.05;12.18;;;2.40;88.50;;;;;;5008507;28;20070;-67
2021/04/21 05:11:57;;;;;;;20.45;11.25;;;2.60;88.90;;;;;;5010489;28;20096;-67
2021/04/21 05:14:24;;;;;;;19.77;11.30;;;2.60;88.40;;;;;;5009962;28;20052;-66
2021/04/21 05:16:55;;;;;;;19.88;11.63;;;2.70;88.10;;;;;;5009560;28;20034;-68
2021/04/21 05:19:49;;;;;;;18.77;11.48;;;2.80;88.50;;;;;;5008920;28;20032;-66
2021/04/21 05:22:49;;;;;;;17.88;11.45;;;2.90;88.70;;;;;;5005226;28;20505;-66
2021/04/21 05:25:35;;;;;;;16.83;11.15;;;3.10;88.40;;;;;;4964314;28;20052;-67
2021/04/21 05:28:15;;;;;;;18.55;11.25;;;3.10;88.10;;;;;;4995178;28;20037;-67
2021/04/21 05:31:09;;;;;;;16.35;9.90;;;3.30;88.10;;;;;;5005057;28;20137;-67
2021/04/21 05:33:47;;;;;;;17.60;10.15;;;3.40;87.50;;;;;;5002341;28;20079;-65
2021/04/21 05:36:50;;;;;;;16.58;10.23;;;3.60;87.00;;;;;;5009502;28;20048;-67
2021/04/21 05:39:34;;;;;;;16.45;9.73;;;3.70;86.60;;;;;;5007261;28;20103;-66
2021/04/21 05:42:50;;;;;;;16.25;9.40;;;3.90;86.30;;;;;;5008826;28;20026;-66
2021/04/21 05:45:37;;;;;;;15.55;9.23;;;4.00;85.80;;;;;;4968604;28;20472;-68
2021/04/21 05:48:30;;;;;;;15.00;9.35;;;4.10;85.60;;;;;;5004946;28;20140;-67
2021/04/21 05:51:23;;;;;;;12.13;8.40;;;4.30;85.00;;;;;;5007175;28;20091;-68
2021/04/21 05:54:17;;;;;;;14.90;8.75;;;4.40;84.80;;;;;;5006484;28;20092;-68
2021/04/21 05:57:01;;;;;;;18.30;8.25;;;4.50;84.80;;;;;;5008756;28;20367;-68
2021/04/21 05:59:57;;;;;;;12.82;8.27;;;4.50;84.10;;;;;;5008562;28;20030;-66
2021/04/21 06:02:28;;;;;;;11.38;7.25;;;4.60;84.10;;;;;;5001938;28;20041;-68
2021/04/21 06:05:08;;;;;;;17.47;8.37;;;4.60;83.60;;;;;;5001290;28;20034;-66
2021/04/21 06:07:34;;;;;;;13.88;8.60;;;4.70;84.00;;;;;;4999805;28;20284;-67
2021/04/21 06:09:59;;;;;;;15.18;7.72;;;4.80;84.20;;;;;;5002974;28;20022;-67
2021/04/21 06:12:25;;;;;;;15.10;7.95;;;4.90;83.90;;;;;;5007750;28;20030;-68
2021/04/21 06:14:52;;;;;;;12.38;7.55;;;5.10;84.50;;;;;;5006476;28;20054;-68
2021/04/21 06:17:25;;;;;;;15.45;8.50;;;5.10;83.30;;;;;;5007247;28;20547;-65
2021/04/21 06:19:52;;;;;;;18.10;7.70;;;5.40;82.60;;;;;;5009769;28;20030;-65
2021/04/21 06:22:30;;;;;;;12.40;7.68;;;5.60;81.80;;;;;;5012581;28;20657;-65
2021/04/21 06:25:14;;;;;;;11.90;7.05;;;5.80;81.40;;;;;;5011788;28;20084;-64
2021/04/21 06:27:40;;;;;;;10.82;7.07;;;6.10;81.00;;;;;;5006704;28;20113;-67
2021/04/21 06:30:07;;;;;;;11.27;6.88;;;6.30;80.00;;;;;;5005765;28;20113;-68
2021/04/21 06:32:34;;;;;;;11.13;7.05;;;6.50;80.10;;;;;;4994473;28;20033;-68
2021/04/21 06:35:10;;;;;;;10.82;6.22;;;6.60;79.40;;;;;;4999748;28;20395;-67
2021/04/21 06:37:36;;;;;;;10.05;6.80;;;6.80;79.30;;;;;;5008176;28;20033;-69
2021/04/21 06:40:06;;;;;;;12.43;7.60;;;7.10;78.90;;;;;;5007405;28;20022;-68
2021/04/21 06:42:34;;;;;;;12.18;6.78;;;7.40;77.70;;;;;;5006951;28;20022;-68
2021/04/21 06:45:00;;;;;;;10.23;6.68;;;7.70;74.20;;;;;;5007547;28;20168;-67
2021/04/21 06:47:28;;;;;;;11.55;6.35;;;7.90;73.50;;;;;;5001629;28;20234;-68
2021/04/21 06:50:08;;;;;;;11.63;7.13;;;7.80;73.00;;;;;;4996950;28;20058;-67
2021/04/21 06:52:34;;;;;;;11.68;6.60;;;7.90;73.10;;;;;;5005259;28;20172;-68
2021/04/21 06:55:11;;;;;;;11.32;6.68;;;8.00;73.00;;;;;;4999613;28;20526;-67
2021/04/21 06:57:37;;;;;;;9.90;6.45;;;8.40;72.40;;;;;;5003855;28;20026;-66
2021/04/21 07:00:15;;;;;;;12.48;6.07;;;8.80;71.10;;;;;;5002544;28;20029;-67
2021/04/21 07:02:45;;;;;;;15.57;6.95;;;9.10;69.20;;;;;;5005552;28;20052;-67
2021/04/21 07:05:31;;;;;;;10.50;6.10;;;9.30;67.50;;;;;;5007552;28;20045;-67
2021/04/21 07:08:07;;;;;;;13.25;6.68;;;9.40;66.70;;;;;;5008842;28;20285;-66
2021/04/21 07:10:39;;;;;;;14.98;7.95;;;9.60;66.00;;;;;;5008139;28;20026;-68
2021/04/21 07:13:09;;;;;;;12.60;6.93;;;9.50;65.50;;;;;;5008522;28;20197;-67
2021/04/21 07:15:35;;;;;;;15.60;7.03;;;9.90;66.20;;;;;;4988199;28;20030;-68
2021/04/21 07:18:02;;;;;;;12.07;7.63;;;9.70;63.90;;;;;;5004986;28;20042;-67
2021/04/21 07:20:28;;;;;;;17.35;7.20;;;10.00;65.00;;;;;;5007692;28;20026;-67
2021/04/21 07:22:54;;;;;;;11.60;7.28;;;10.10;65.60;;;;;;5008750;28;20025;-67
2021/04/21 07:25:20;;;;;;;11.40;7.50;;;10.30;65.10;;;;;;5007839;28;20508;-68
2021/04/21 07:27:52;;;;;;;14.32;7.72;;;10.60;64.00;;;;;;5008888;28;20120;-67
2021/04/21 07:30:26;;;;;;;15.52;7.45;;;10.60;63.80;;;;;;5003553;28;20197;-67
2021/04/21 07:32:52;;;;;;;9.95;7.07;;;10.80;62.70;;;;;;5007905;28;20033;-66
2021/04/21 07:35:20;;;;;;;12.52;7.32;;;11.00;60.80;;;;;;5006653;28;20167;-66
2021/04/21 07:37:47;;;;;;;12.15;7.90;;;11.00;60.60;;;;;;5006892;28;20025;-67
2021/04/21 07:40:36;;;;;;;12.52;6.78;;;11.30;60.10;;;;;;5005407;28;20087;-68
2021/04/21 07:43:12;;;;;;;13.20;7.38;;;11.60;60.00;;;;;;4994623;28;20554;-66
2021/04/21 07:45:46;;;;;;;13.63;8.20;;;11.60;58.60;;;;;;5005969;28;20033;-67
2021/04/21 07:48:33;;;;;;;13.88;7.63;;;11.70;58.10;;;;;;5007869;28;20030;-67
2021/04/21 07:51:12;;;;;;;15.10;7.45;;;11.90;58.80;;;;;;5007111;28;20034;-68
2021/04/21 07:53:47;;;;;;;15.43;7.78;;;12.00;57.80;;;;;;5005834;28;20022;-67
2021/04/21 07:56:13;;;;;;;14.43;7.68;;;12.30;57.70;;;;;;5006599;28;20052;-69
2021/04/21 07:58:38;;;;;;;12.30;8.02;;;12.40;56.90;;;;;;5006824;28;20065;-67
2021/04/21 08:01:04;;;;;;;12.90;8.00;;;12.50;56.00;;;;;;5004495;28;20022;-67
2021/04/21 08:03:30;;;;;;;17.38;8.00;;;12.60;56.00;;;;;;5007365;28;20451;-68
2021/04/21 08:05:55;;;;;;;13.50;8.00;;;12.80;57.20;;;;;;5006608;28;20104;-67
2021/04/21 08:08:33;;;;;;;13.77;8.52;;;12.50;57.60;;;;;;5006774;28;20562;-67
2021/04/21 08:11:01;;;;;;;12.90;7.75;;;12.40;58.50;;;;;;5004806;28;20033;-67
2021/04/21 08:13:48;;;;;;;16.13;8.40;;;12.50;59.50;;;;;;5000980;28;20034;-67
2021/04/21 08:16:31;;;;;;;15.98;8.48;;;12.80;60.10;;;;;;4997037;28;20414;-67
2021/04/21 08:18:59;;;;;;;16.50;9.27;;;12.80;60.10;;;;;;5005441;28;20426;-67
2021/04/21 08:21:40;;;;;;;14.98;9.77;;;13.10;59.40;;;;;;5004545;28;20084;-67
2021/04/21 08:24:08;;;;;;;15.88;10.10;;;12.80;60.90;;;;;;5012215;28;20026;-67
2021/04/21 08:26:35;;;;;;;16.00;10.00;;;12.90;60.80;;;;;;5004744;28;20084;-67
2021/04/21 08:29:01;;;;;;;17.08;10.30;;;12.70;61.50;;;;;;5004756;28;20068;-67
2021/04/21 08:31:28;;;;;;;16.70;10.98;;;12.70;61.40;;;;;;5005748;28;20056;-67
2021/04/21 08:33:54;;;;;;;17.13;10.75;;;12.80;62.40;;;;;;5008963;28;20022;-68
2021/04/21 08:36:21;;;;;;;21.98;11.73;;;12.90;61.30;;;;;;5012094;28;20037;-64
2021/04/21 08:38:48;;;;;;;18.20;11.57;;;12.80;62.60;;;;;;5008420;28;20450;-67
2021/04/21 08:41:17;;;;;;;18.15;12.23;;;12.80;63.80;;;;;;5009085;28;20021;-67
2021/04/21 08:43:47;;;;;;;19.60;12.43;;;13.10;63.10;;;;;;5003490;28;20029;-67
2021/04/21 08:46:14;;;;;;;22.17;12.63;;;13.10;62.90;;;;;;5010763;28;20026;-68
2021/04/21 08:48:41;;;;;;;24.15;13.20;;;13.30;63.80;;;;;;5010094;28;20080;-67
2021/04/21 08:51:12;;;;;;;18.88;13.32;;;13.80;61.40;;;;;;5009087;28;20029;-68
2021/04/21 08:53:41;;;;;;;19.98;13.30;;;13.40;63.00;;;;;;5000256;28;20104;-68
2021/04/21 08:56:09;;;;;;;20.58;12.90;;;13.70;63.50;;;;;;5009369;28;20203;-67
2021/04/21 08:58:35;;;;;;;18.67;12.40;;;13.70;63.40;;;;;;4990352;28;20390;-67
2021/04/21 09:01:01;;;;;;;24.27;14.50;;;12.80;66.70;;;;;;5008248;28;20217;-67
2021/04/21 09:03:28;;;;;;;23.30;14.27;;;12.90;67.70;;;;;;5009030;28;20061;-66
2021/04/21 09:05:53;;;;;;;24.27;15.25;;;12.60;68.00;;;;;;5011053;28;20046;-66
2021/04/21 09:08:20;;;;;;;26.05;15.63;;;13.10;66.70;;;;;;5008250;28;20022;-67
2021/04/21 09:10:47;;;;;;;21.55;15.45;;;12.60;67.70;;;;;;5011514;28;20608;-67
2021/04/21 09:13:14;;;;;;;23.77;16.02;;;13.00;67.80;;;;;;5009576;28;20021;-67
2021/04/21 09:15:42;;;;;;;27.10;15.90;;;12.80;67.20;;;;;;5008795;28;20036;-66
2021/04/21 09:18:08;;;;;;;23.48;16.25;;;13.10;66.30;;;;;;4989935;28;20490;-67
2021/04/21 09:20:44;;;;;;;30.75;16.75;;;13.20;66.60;;;;;;5005677;28;20029;-68
2021/04/21 09:23:12;;;;;;;26.98;16.00;;;13.30;66.40;;;;;;5006757;28;20029;-67
2021/04/21 09:25:40;;;;;;;22.70;15.52;;;13.40;64.90;;;;;;5010036;28;20084;-67
2021/04/21 09:28:07;;;;;;;27.20;16.30;;;13.50;64.50;;;;;;5004685;28;20022;-67
2021/04/21 09:30:36;;;;;;;26.80;16.98;;;13.30;65.30;;;;;;5009447;28;20026;-66
2021/04/21 09:33:04;;;;;;;25.23;16.58;;;13.10;66.40;;;;;;4999520;28;20486;-68
2021/04/21 09:35:41;;;;;;;26.85;17.45;;;13.00;65.70;;;;;;5009891;28;20368;-67
2021/04/21 09:38:17;;;;;;;29.58;18.00;;;12.80;68.20;;;;;;5008098;28;20065;-67
2021/04/21 09:40:49;;;;;;;24.13;16.20;;;13.10;67.30;;;;;;5008380;28;20080;-68
2021/04/21 09:43:20;;;;;;;29.17;17.80;;;13.50;65.80;;;;;;5008983;28;20030;-68
2021/04/21 09:45:57;;;;;;;28.08;17.80;;;12.80;68.90;;;;;;5008603;28;20038;-67
2021/04/21 09:48:23;;;;;;;26.67;16.60;;;12.90;69.30;;;;;;5006496;28;20036;-67
2021/04/21 09:50:59;;;;;;;29.27;16.45;;;12.80;68.70;;;;;;5008957;28;20101;-67
2021/04/21 09:53:25;;;;;;;30.83;16.58;;;12.50;70.30;;;;;;5007702;28;20057;-67
2021/04/21 09:56:19;;;;;;;25.33;15.65;;;12.80;69.20;;;;;;5010108;28;20033;-67
2021/04/21 09:58:48;;;;;;;26.05;14.77;;;12.00;70.10;;;;;;5004400;28;20054;-68
2021/04/21 10:01:26;;;;;;;25.23;15.02;;;12.30;70.90;;;;;;5008239;28;20021;-69
2021/04/21 10:04:08;;;;;;;24.80;14.45;;;12.10;71.30;;;;;;5008771;28;20140;-67
2021/04/21 10:06:34;;;;;;;22.83;14.70;;;12.00;71.10;;;;;;4997969;28;20030;-67
2021/04/21 10:09:00;;;;;;;24.77;14.77;;;11.60;71.70;;;;;;5004412;28;20064;-67
2021/04/21 10:11:26;;;;;;;21.52;14.65;;;11.60;72.10;;;;;;5007589;28;20042;-69
2021/04/21 10:13:53;;;;;;;22.33;13.95;;;11.80;72.00;;;;;;5007146;28;20036;-69
2021/04/21 10:16:20;;;;;;;29.20;14.27;;;12.00;70.60;;;;;;5006743;28;20033;-68
2021/04/21 10:18:46;;;;;;;21.90;13.70;;;12.10;70.90;;;;;;5002365;28;20030;-69
2021/04/21 10:21:14;;;;;;;21.95;12.95;;;12.20;70.40;;;;;;5003559;28;20234;-69
2021/04/21 10:23:42;;;;;;;21.13;13.43;;;12.50;69.60;;;;;;5007508;28;20513;-67
2021/04/21 10:26:09;;;;;;;19.88;13.00;;;12.10;70.10;;;;;;5005932;28;20025;-68
2021/04/21 10:28:37;;;;;;;19.50;12.63;;;12.40;69.40;;;;;;5004906;28;20025;-69
2021/04/21 10:31:15;;;;;;;19.98;12.82;;;12.20;69.50;;;;;;5006393;28;20025;-68
2021/04/21 10:33:42;;;;;;;18.83;11.68;;;12.50;69.30;;;;;;5004421;28;20053;-69
2021/04/21 10:36:09;;;;;;;18.63;11.68;;;12.50;68.90;;;;;;5006820;28;20033;-68
2021/04/21 10:38:37;;;;;;;19.13;11.93;;;12.60;68.90;;;;;;5005161;28;20022;-68
2021/04/21 10:41:32;;;;;;;23.13;12.05;;;12.50;69.50;;;;;;5005695;28;20640;-67
2021/04/21 10:44:22;;;;;;;18.10;11.98;;;12.10;70.30;;;;;;4987047;28;20372;-69
2021/04/21 10:46:58;;;;;;;18.10;10.90;;;12.00;70.90;;;;;;5005597;28;20394;-68
2021/04/21 10:49:56;;;;;;;22.67;10.27;;;11.50;72.20;;;;;;5004630;28;20025;-68
2021/04/21 10:52:26;;;;;;;17.25;9.88;;;11.40;72.60;;;;;;5007430;28;20113;-68
2021/04/21 10:54:57;;;;;;;13.90;8.90;;;11.40;72.80;;;;;;5001950;28;20018;-67
2021/04/21 10:57:29;;;;;;;19.95;9.82;;;11.50;72.90;;;;;;5005163;28;20502;-68
2021/04/21 11:00:22;;;;;;;14.02;8.63;;;11.20;73.20;;;;;;5003803;28;20449;-68
2021/04/21 11:03:08;;;;;;;19.17;8.90;;;10.80;74.50;;;;;;5006257;28;20034;-67
2021/04/21 11:05:39;;;;;;;19.95;9.85;;;10.80;74.40;;;;;;5004410;28;20084;-68
2021/04/21 11:08:06;;;;;;;15.55;8.77;;;11.20;73.20;;;;;;5005730;28;20030;-69
2021/04/21 11:10:50;;;;;;;15.98;8.77;;;11.10;72.40;;;;;;5004270;28;20017;-68
2021/04/21 11:13:34;;;;;;;15.68;8.43;;;11.50;70.00;;;;;;5004378;28;20022;-69
2021/04/21 11:16:02;;;;;;;11.63;7.38;;;11.70;69.00;;;;;;5006334;28;20022;-68
2021/04/21 11:18:29;;;;;;;15.77;6.82;;;12.00;68.30;;;;;;5004577;28;20056;-68
2021/04/21 11:21:01;;;;;;;14.13;5.93;;;11.60;68.60;;;;;;5007380;28;20719;-69
2021/04/21 11:26:33;;;;;;;12.40;4.90;;;10.80;71.70;;;;;;5005088;28;20467;-68
2021/04/21 11:29:13;;;;;;;12.07;4.20;;;10.60;72.50;;;;;;5006487;28;20034;-68
2021/04/21 11:31:42;;;;;;;8.43;3.30;;;10.70;72.90;;;;;;5003987;28;20238;-69
2021/04/21 11:34:19;;;;;;;7.32;3.08;;;10.80;70.90;;;;;;4995130;28;20056;-68
2021/04/21 11:37:01;;;;;;;7.55;2.80;;;10.70;71.10;;;;;;5003918;28;20022;-68
2021/04/21 11:42:22;;;;;;;7.05;2.78;;;11.00;70.00;;;;;;5006055;28;19971;-69
2021/04/21 11:45:05;;;;;;;5.03;1.83;;;11.50;68.50;;;;;;5000906;28;20038;-69
2021/04/21 11:47:40;;;;;;;8.75;2.05;;;11.80;65.70;;;;;;5004686;28;20029;-69
2021/04/21 11:50:10;;;;;;;7.65;1.55;;;11.90;65.60;;;;;;5004537;28;20035;-67
2021/04/21 11:52:57;;;;;;;9.80;1.80;;;12.20;63.60;;;;;;5007650;28;20061;-69
2021/04/21 11:56:02;;;;;;;7.38;1.67;;;12.60;61.30;;;;;;5005893;28;20151;-68
2021/04/21 11:58:30;;;;;;;6.28;1.52;;;12.10;60.20;;;;;;4983799;28;20033;-68
2021/04/21 12:01:05;;;;;;;6.88;1.48;;;12.60;55.60;;;;;;4990879;28;20498;-67
2021/04/21 12:03:35;;;;;;;6.78;1.63;;;12.20;53.50;;;;;;4984517;28;20445;-69
2021/04/21 12:06:09;;;;;;;10.43;1.40;;;12.70;54.40;;;;;;5002366;28;20042;-69
2021/04/21 12:08:38;;;;;;;8.43;1.35;;;12.90;54.80;;;;;;5003005;28;20025;-69
2021/04/21 12:11:05;;;;;;;6.13;1.25;;;12.50;52.90;;;;;;4983789;28;20036;-67
2021/04/21 12:13:57;;;;;;;6.25;1.02;;;12.10;54.20;;;;;;5003250;28;20022;-69
2021/04/21 12:16:25;;;;;;;6.72;1.20;;;12.20;54.20;;;;;;4999255;28;20174;-68
2021/04/21 12:18:53;;;;;;;3.70;1.15;;;13.00;53.70;;;;;;5001033;28;20052;-67
2021/04/21 12:21:18;;;;;;;4.43;1.17;;;12.90;51.60;;;;;;5004772;28;20022;-68
2021/04/21 12:23:47;;;;;;;6.40;1.70;;;13.30;51.50;;;;;;5002215;28;21839;-69
2021/04/21 12:26:27;;;;;;;6.25;1.40;;;13.10;51.20;;;;;;4980387;28;20136;-67
2021/04/21 12:28:59;;;;;;;7.20;1.45;;;13.00;51.40;;;;;;5000792;28;20065;-68
2021/04/21 12:31:26;;;;;;;6.90;1.67;;;13.10;53.20;;;;;;5002791;28;20636;-68
2021/04/21 12:33:54;;;;;;;6.30;1.30;;;13.30;51.30;;;;;;5002059;28;20033;-67
2021/04/21 12:36:22;;;;;;;7.57;1.60;;;13.00;53.10;;;;;;4978836;28;20021;-68
2021/04/21 12:39:08;;;;;;;7.72;1.80;;;12.90;53.30;;;;;;5005470;28;20382;-69
2021/04/21 12:41:36;;;;;;;10.57;2.00;;;12.80;53.80;;;;;;5004122;28;20033;-69
2021/04/21 12:44:21;;;;;;;6.47;1.70;;;12.90;54.10;;;;;;5000518;28;20537;-68
2021/04/21 12:46:52;;;;;;;5.32;1.30;;;14.20;50.60;;;;;;5002254;28;20084;-68
2021/04/21 12:49:48;;;;;;;6.35;1.33;;;14.60;48.50;;;;;;5002893;28;20109;-68
2021/04/21 12:52:18;;;;;;;7.65;1.45;;;14.40;47.90;;;;;;4993324;28;20038;-68
2021/04/21 12:54:45;;;;;;;7.03;1.60;;;14.10;48.40;;;;;;5003923;28;20038;-68
2021/04/21 12:57:19;;;;;;;4.93;1.40;;;14.90;46.10;;;;;;5003137;28;20030;-68
2021/04/21 12:59:55;;;;;;;6.50;1.42;;;13.70;47.80;;;;;;5001119;28;20023;-69
2021/04/21 13:02:40;;;;;;;11.15;1.80;;;13.00;48.60;;;;;;5003148;28;20025;-68
2021/04/21 13:05:06;;;;;;;5.28;1.52;;;13.00;49.50;;;;;;5003237;28;20029;-67
2021/04/21 13:07:32;;;;;;;5.20;1.38;;;13.90;46.70;;;;;;4982640;28;20038;-68
2021/04/21 13:10:12;;;;;;;5.45;1.13;;;14.50;44.80;;;;;;5002680;28;20041;-68
2021/04/21 13:12:38;;;;;;;8.15;1.45;;;14.80;42.50;;;;;;5004891;28;20033;-71
2021/04/21 13:15:18;;;;;;;3.88;1.20;;;14.10;45.60;;;;;;5002256;28;20080;-68
2021/04/21 13:17:53;;;;;;;6.45;1.60;;;14.10;45.00;;;;;;5005697;28;20022;-68
2021/04/21 13:20:35;;;;;;;7.10;1.48;;;13.10;47.20;;;;;;4988942;28;20036;-70
2021/04/21 13:23:13;;;;;;;4.20;1.55;;;13.80;47.10;;;;;;5005885;28;20026;-68
2021/04/21 13:25:56;;;;;;;6.53;1.73;;;14.10;46.30;;;;;;5005479;28;20029;-68